createdAt,value
2019-04-25T00:01:11.560Z,146.22
2019-04-25T00:03:55.200Z,121.90
2019-04-25T00:06:39.183Z,122.00
2019-04-25T00:09:22.895Z,136.70
2019-04-25T00:12:02.961Z,149.47
2019-04-25T00:14:45.810Z,139.50
2019-04-25T00:17:27.155Z,127.90
2019-04-25T00:20:09.468Z,148.67
2019-04-25T00:22:55.727Z,151.22
2019-04-25T00:25:54.284Z,126.50
2019-04-25T00:28:37.345Z,121.37
2019-04-25T00:31:19.778Z,133.83
2019-04-25T00:34:08.045Z,147.17
2019-04-25T00:36:53.092Z,144.43
2019-04-25T00:39:35.724Z,151.42
2019-04-25T00:42:14.452Z,152.83
2019-04-25T00:44:55.914Z,126.33
2019-04-25T00:47:42.421Z,144.83
2019-04-25T00:50:24.825Z,128.60
2019-04-25T00:53:07.072Z,130.63
2019-04-25T00:55:52.450Z,149.90
2019-04-25T00:58:46.741Z,140.10
2019-04-25T01:01:46.511Z,172.57
2019-04-25T01:04:28.110Z,145.53
2019-04-25T01:07:09.878Z,146.43
2019-04-25T01:09:54.509Z,135.33
2019-04-25T01:12:39.485Z,141.57
2019-04-25T01:15:21.671Z,135.07
2019-04-25T01:18:02.758Z,136.93
2019-04-25T01:20:43.430Z,157.80
2019-04-25T01:23:25.348Z,157.47
2019-04-25T01:26:08.487Z,160.15
2019-04-25T01:28:51.919Z,151.53
2019-04-25T01:31:33.601Z,157.30
2019-04-25T01:34:14.474Z,124.43
2019-04-25T01:37:01.056Z,146.37
2019-04-25T01:39:48.894Z,129.00
2019-04-25T01:42:50.333Z,130.40
2019-04-25T01:45:35.141Z,120.47
2019-04-25T01:48:13.737Z,140.03
2019-04-25T01:50:56.529Z,123.53
2019-04-25T01:53:41.352Z,130.17
2019-04-25T01:56:22.976Z,121.60
2019-04-25T01:59:05.101Z,122.27
2019-04-25T02:01:44.393Z,127.72
2019-04-25T02:04:29.355Z,116.23
2019-04-25T02:07:10.573Z,118.87
2019-04-25T02:10:00.058Z,116.00
2019-04-25T02:12:47.778Z,132.27
2019-04-25T02:15:33.318Z,137.50
2019-04-25T02:18:16.305Z,131.47
2019-04-25T02:21:01.261Z,135.40
2019-04-25T02:23:48.296Z,151.23
2019-04-25T02:26:34.383Z,127.47
2019-04-25T02:29:16.693Z,127.47
2019-04-25T02:31:59.758Z,130.60
2019-04-25T02:34:38.267Z,118.07
2019-04-25T02:37:25.880Z,134.73
2019-04-25T02:40:08.127Z,134.83
2019-04-25T02:42:50.406Z,125.27
2019-04-25T02:45:45.768Z,114.08
2019-04-25T02:48:40.499Z,110.77
2019-04-25T02:51:38.521Z,117.83
2019-04-25T02:54:19.209Z,115.43
2019-04-25T02:56:59.842Z,101.57
2019-04-25T02:59:41.985Z,96.03
2019-04-25T03:02:24.367Z,89.23
2019-04-25T03:05:06.049Z,98.80
2019-04-25T03:07:47.210Z,107.17
2019-04-25T03:10:32.605Z,88.33
2019-04-25T03:13:15.005Z,91.93
2019-04-25T03:16:00.565Z,87.97
2019-04-25T03:19:02.886Z,91.40
2019-04-25T03:21:45.651Z,81.13
2019-04-25T03:24:25.017Z,90.13
2019-04-25T03:27:05.886Z,74.20
2019-04-25T03:29:47.946Z,83.60
2019-04-25T03:32:31.070Z,101.03
2019-04-25T03:35:09.934Z,77.93
2019-04-25T03:37:51.477Z,73.47
2019-04-25T03:40:35.523Z,87.67
2019-04-25T03:43:16.484Z,218.80
2019-04-25T03:46:00.603Z,133.57
2019-04-25T03:48:41.222Z,104.73
2019-04-25T03:51:24.110Z,209.93
2019-04-25T03:54:07.456Z,121.37
2019-04-25T03:56:53.560Z,103.02
2019-04-25T03:59:30.103Z,82.20
2019-04-25T04:02:15.193Z,77.57
2019-04-25T04:04:56.674Z,77.10
2019-04-25T04:07:38.891Z,104.70
2019-04-25T04:10:23.501Z,100.00
2019-04-25T04:13:07.145Z,82.37
2019-04-25T04:15:50.497Z,101.63
2019-04-25T04:18:41.408Z,84.80
2019-04-25T04:21:30.036Z,107.22
2019-04-25T04:24:19.526Z,148.50
2019-04-25T04:27:19.032Z,121.47
2019-04-25T04:30:01.071Z,326.70
2019-04-25T04:32:44.061Z,141.67
2019-04-25T04:35:27.201Z,102.43
2019-04-25T04:38:09.823Z,92.90
2019-04-25T04:41:01.298Z,158.65
2019-04-25T04:43:44.684Z,117.93
2019-04-25T04:46:30.387Z,115.82
2019-04-25T04:49:15.295Z,101.37
2019-04-25T04:51:59.954Z,440.43
2019-04-25T04:54:49.530Z,175.47
2019-04-25T04:57:34.146Z,93.43
2019-04-25T05:00:15.512Z,108.35
2019-04-25T05:03:04.467Z,74.93
2019-04-25T05:05:55.115Z,116.47
2019-04-25T05:08:40.332Z,116.97
2019-04-25T05:11:23.866Z,69.63
2019-04-25T05:14:11.847Z,68.73
2019-04-25T05:17:05.931Z,85.13
2019-04-25T05:19:47.398Z,89.43
2019-04-25T05:22:33.271Z,69.53
2019-04-25T05:25:19.122Z,75.40
2019-04-25T05:28:03.082Z,80.00
2019-04-25T05:30:54.361Z,64.37
2019-04-25T05:33:38.697Z,54.17
2019-04-25T05:36:23.882Z,103.47
2019-04-25T05:39:05.451Z,87.50
2019-04-25T05:42:04.186Z,67.60
2019-04-25T05:44:49.461Z,49.03
2019-04-25T05:47:30.284Z,52.37
2019-04-25T05:50:10.228Z,46.13
2019-04-25T05:52:51.022Z,56.43
2019-04-25T05:55:37.252Z,51.57
2019-04-25T05:58:20.390Z,50.20
2019-04-25T06:01:05.163Z,80.37
2019-04-25T06:03:49.248Z,123.47
2019-04-25T06:06:34.956Z,61.43
2019-04-25T06:09:26.879Z,59.63
2019-04-25T06:12:36.935Z,49.80
2019-04-25T06:15:18.663Z,48.40
2019-04-25T06:18:30.664Z,50.60
2019-04-25T06:21:23.603Z,57.00
2019-04-25T06:24:19.319Z,44.73
2019-04-25T06:30:37.733Z,85.80
2019-04-25T06:33:29.077Z,60.67
2019-04-25T06:36:11.465Z,138.30
2019-04-25T06:38:52.310Z,72.17
2019-04-25T06:41:37.013Z,58.50
2019-04-25T06:44:34.599Z,54.23
2019-04-25T06:47:31.928Z,55.57
2019-04-25T06:50:17.327Z,58.43
2019-04-25T06:53:00.709Z,55.93
2019-04-25T06:55:45.600Z,60.37
2019-04-25T06:58:28.472Z,50.17
2019-04-25T07:01:13.676Z,164.13
2019-04-25T07:04:00.556Z,74.58
2019-04-25T07:06:41.491Z,51.23
2019-04-25T07:09:24.429Z,52.93
2019-04-25T07:12:10.290Z,50.57
2019-04-25T07:14:53.811Z,54.37
2019-04-25T07:17:37.135Z,51.70
2019-04-25T07:20:21.230Z,50.07
2019-04-25T07:23:13.577Z,50.90
2019-04-25T07:26:26.858Z,60.78
2019-04-25T07:29:20.777Z,53.30
2019-04-25T07:32:17.134Z,52.63
2019-04-25T07:34:56.913Z,57.10
2019-04-25T07:37:41.593Z,54.03
2019-04-25T07:40:21.149Z,51.77
2019-04-25T07:43:06.299Z,67.33
2019-04-25T07:45:49.636Z,58.57
2019-04-25T07:48:33.720Z,59.77
2019-04-25T07:51:18.568Z,58.90
2019-04-25T07:54:10.055Z,57.13
2019-04-25T07:56:46.456Z,46.93
2019-04-25T07:59:30.989Z,55.20
2019-04-25T08:02:13.266Z,53.75
2019-04-25T08:04:58.250Z,58.53
2019-04-25T08:07:43.587Z,49.87
2019-04-25T08:10:24.906Z,49.13
2019-04-25T08:13:11.572Z,56.65
2019-04-25T08:16:00.485Z,47.67
2019-04-25T08:18:45.309Z,52.50
2019-04-25T08:21:26.537Z,52.80
2019-04-25T08:24:10.992Z,59.20
2019-04-25T08:26:49.672Z,61.17
2019-04-25T08:29:36.343Z,54.37
2019-04-25T08:32:15.567Z,57.07
2019-04-25T08:34:59.387Z,61.85
2019-04-25T08:37:44.074Z,60.47
2019-04-25T08:40:25.416Z,56.30
2019-04-25T08:43:06.480Z,58.50
2019-04-25T08:45:48.602Z,61.80
2019-04-25T08:48:33.647Z,57.10
2019-04-25T08:51:18.690Z,47.77
2019-04-25T08:54:03.740Z,41.60
2019-04-25T08:56:45.326Z,49.97
2019-04-25T08:59:47.189Z,48.87
2019-04-25T09:02:40.626Z,51.07
2019-04-25T09:05:37.776Z,48.23
2019-04-25T09:08:23.990Z,40.67
2019-04-25T09:11:04.376Z,53.50
2019-04-25T09:13:45.419Z,49.87
2019-04-25T09:16:28.581Z,45.70
2019-04-25T09:19:11.234Z,44.60
2019-04-25T09:21:50.599Z,46.50
2019-04-25T09:24:31.775Z,51.57
2019-04-25T09:27:13.442Z,45.53
2019-04-25T09:29:55.481Z,48.13
2019-04-25T09:32:37.294Z,53.60
2019-04-25T09:35:20.175Z,43.57
2019-04-25T09:38:06.745Z,43.60
2019-04-25T09:40:48.532Z,48.20
2019-04-25T09:43:31.056Z,58.40
2019-04-25T09:46:17.828Z,57.50
2019-04-25T09:49:15.267Z,54.63
2019-04-25T09:52:24.358Z,50.83
2019-04-25T09:55:27.191Z,52.07
2019-04-25T09:58:17.674Z,52.33
2019-04-25T10:01:00.832Z,54.37
2019-04-25T10:03:43.549Z,54.77
2019-04-25T10:06:26.321Z,54.30
2019-04-25T10:09:08.938Z,56.68
2019-04-25T10:11:51.614Z,58.63
2019-04-25T10:15:11.733Z,58.83
2019-04-25T10:17:52.983Z,54.10
2019-04-25T10:20:49.476Z,62.57
2019-04-25T10:23:34.651Z,58.10
2019-04-25T10:26:17.819Z,56.13
2019-04-25T10:29:00.229Z,55.67
2019-04-25T10:31:44.314Z,56.27
2019-04-25T10:34:27.933Z,53.43
2019-04-25T10:37:09.720Z,68.00
2019-04-25T10:39:55.552Z,60.70
2019-04-25T10:42:44.214Z,64.17
2019-04-25T10:45:31.248Z,61.13
2019-04-25T10:48:19.214Z,66.57
2019-04-25T10:51:04.173Z,66.03
2019-04-25T10:53:46.928Z,65.07
2019-04-25T10:56:33.505Z,81.70
2019-04-25T10:59:16.814Z,66.63
2019-04-25T11:01:57.129Z,58.87
2019-04-25T11:04:51.499Z,66.67
2019-04-25T11:07:37.582Z,150.53
2019-04-25T11:10:23.483Z,97.07
2019-04-25T11:13:05.339Z,84.97
2019-04-25T11:15:45.980Z,77.63
2019-04-25T11:18:29.575Z,77.87
2019-04-25T11:21:13.810Z,174.25
2019-04-25T11:23:57.128Z,143.43
2019-04-25T11:26:40.555Z,102.17
2019-04-25T11:29:27.434Z,108.00
2019-04-25T11:32:13.220Z,90.50
2019-04-25T11:35:05.235Z,84.77
2019-04-25T11:37:55.498Z,88.30
2019-04-25T11:40:51.532Z,88.67
2019-04-25T11:43:43.493Z,113.50
2019-04-25T11:46:24.172Z,105.50
2019-04-25T11:49:08.489Z,78.80
2019-04-25T11:51:56.264Z,69.90
2019-04-25T11:54:38.855Z,89.53
2019-04-25T11:57:23.908Z,145.70
2019-04-25T12:00:21.568Z,117.27
2019-04-25T12:02:54.951Z,85.27
2019-04-25T12:05:42.695Z,86.13
2019-04-25T12:08:37.466Z,78.40
2019-04-25T12:11:25.962Z,78.73
2019-04-25T12:14:11.219Z,103.60
2019-04-25T12:16:56.277Z,93.83
2019-04-25T12:19:39.418Z,81.23
2019-04-25T12:22:24.824Z,70.87
2019-04-25T12:25:08.835Z,73.33
2019-04-25T12:27:55.224Z,74.57
2019-04-25T12:30:47.406Z,71.27
2019-04-25T12:33:32.170Z,67.77
2019-04-25T12:36:17.320Z,75.55
2019-04-25T12:39:01.083Z,68.87
2019-04-25T12:41:48.971Z,67.33
2019-04-25T12:44:51.511Z,72.30
2019-04-25T12:47:38.838Z,70.57
2019-04-25T12:50:19.522Z,80.10
2019-04-25T12:53:03.639Z,183.97
2019-04-25T12:55:45.343Z,183.77
2019-04-25T12:58:27.750Z,158.80
2019-04-25T13:01:24.815Z,127.23
2019-04-25T13:04:14.295Z,94.37
2019-04-25T13:07:05.281Z,94.60
2019-04-25T13:09:55.416Z,151.47
2019-04-25T13:12:37.274Z,189.07
2019-04-25T13:15:21.367Z,142.07
2019-04-25T13:18:20.397Z,111.67
2019-04-25T13:21:11.061Z,105.35
2019-04-25T13:23:58.072Z,96.87
2019-04-25T13:26:48.674Z,94.07
2019-04-25T13:29:58.767Z,85.43
2019-04-25T13:32:57.645Z,84.63
2019-04-25T13:36:02.916Z,86.30
2019-04-25T13:38:50.584Z,81.47
2019-04-25T13:41:33.712Z,79.07
2019-04-25T13:44:26.515Z,80.55
2019-04-25T13:47:14.000Z,80.80
2019-04-25T13:50:03.757Z,151.50
2019-04-25T13:52:54.492Z,123.90
2019-04-25T13:55:42.724Z,104.47
2019-04-25T13:58:30.524Z,94.23
2019-04-25T14:04:35.410Z,86.57
2019-04-25T14:07:22.958Z,91.60
2019-04-25T14:10:23.410Z,85.30
2019-04-25T14:13:28.406Z,84.07
2019-04-25T14:16:25.367Z,79.43
2019-04-25T14:19:25.259Z,78.10
2019-04-25T14:25:12.978Z,75.63
2019-04-25T14:28:17.210Z,81.03
2019-04-25T14:30:59.990Z,77.97
2019-04-25T14:34:03.282Z,95.67
2019-04-25T14:36:51.835Z,84.43
2019-04-25T14:39:44.042Z,86.43
2019-04-25T14:42:26.933Z,83.87
2019-04-25T14:45:13.448Z,82.43
2019-04-25T14:47:54.746Z,78.17
2019-04-25T14:50:40.880Z,74.03
2019-04-25T14:53:30.896Z,70.73
2019-04-25T14:56:25.887Z,102.50
2019-04-25T14:59:11.214Z,184.15
2019-04-25T15:01:56.122Z,126.47
2019-04-25T15:04:40.189Z,88.00
2019-04-25T15:07:37.723Z,71.13
2019-04-25T15:10:34.582Z,71.23
2019-04-25T15:13:26.036Z,65.17
2019-04-25T15:16:29.042Z,85.17
2019-04-25T15:19:18.049Z,85.73
2019-04-25T15:22:07.288Z,114.70
2019-04-25T15:24:54.089Z,108.33
2019-04-25T15:27:42.569Z,109.23
2019-04-25T15:30:35.620Z,82.07
2019-04-25T15:33:31.106Z,76.93
2019-04-25T15:36:37.710Z,64.43
2019-04-25T15:39:45.020Z,68.70
2019-04-25T15:42:59.251Z,69.77
2019-04-25T15:46:29.021Z,66.63
2019-04-25T15:49:43.843Z,72.42
2019-04-25T15:56:15.543Z,63.27
2019-04-25T15:59:21.067Z,164.43
2019-04-25T16:02:08.151Z,111.67
2019-04-25T16:04:51.737Z,83.83
2019-04-25T16:07:35.287Z,75.60
2019-04-25T16:10:19.394Z,78.80
2019-04-25T16:13:02.847Z,77.10
2019-04-25T16:15:45.539Z,75.17
2019-04-25T16:18:27.367Z,70.70
2019-04-25T16:21:12.667Z,71.63
2019-04-25T16:23:59.930Z,74.00
2019-04-25T16:26:39.947Z,71.57
2019-04-25T16:29:27.653Z,72.47
2019-04-25T16:32:20.611Z,63.17
2019-04-25T16:35:04.414Z,66.10
2019-04-25T16:37:46.802Z,69.55
2019-04-25T16:40:31.886Z,73.97
2019-04-25T16:43:34.080Z,69.10
2019-04-25T16:46:27.758Z,61.27
2019-04-25T16:49:14.916Z,65.57
2019-04-25T16:51:59.200Z,66.37
2019-04-25T16:54:44.317Z,67.23
2019-04-25T16:57:32.700Z,67.07
2019-04-25T17:00:15.707Z,65.40
2019-04-25T17:02:55.682Z,77.45
2019-04-25T17:05:40.119Z,72.67
2019-04-25T17:08:26.020Z,74.40
2019-04-25T17:11:09.016Z,75.77
2019-04-25T17:14:01.859Z,65.33
2019-04-25T17:17:04.165Z,67.47
2019-04-25T17:20:04.657Z,61.00
2019-04-25T17:22:49.262Z,63.53
2019-04-25T17:25:31.259Z,62.87
2019-04-25T17:28:15.103Z,55.92
2019-04-25T17:31:06.334Z,57.30
2019-04-25T17:34:17.109Z,61.30
2019-04-25T17:37:18.007Z,59.87
2019-04-25T17:40:02.021Z,62.90
2019-04-25T17:42:48.830Z,62.93
2019-04-25T17:45:34.823Z,68.23
2019-04-25T17:48:16.193Z,291.27
2019-04-25T17:50:59.329Z,187.90
2019-04-25T17:53:43.877Z,119.30
2019-04-25T17:56:28.164Z,100.87
2019-04-25T17:59:09.525Z,98.17
2019-04-25T18:01:54.708Z,81.33
2019-04-25T18:04:44.617Z,79.43
2019-04-25T18:07:31.089Z,82.17
2019-04-25T18:10:12.851Z,70.23
2019-04-25T18:12:56.090Z,64.90
2019-04-25T18:16:01.852Z,55.17
2019-04-25T18:19:01.873Z,52.80
2019-04-25T18:21:45.241Z,66.47
2019-04-25T18:24:59.776Z,52.93
2019-04-25T18:27:54.399Z,54.10
2019-04-25T18:30:41.167Z,59.50
2019-04-25T18:33:34.901Z,65.30
2019-04-25T18:36:38.642Z,60.07
2019-04-25T18:39:28.946Z,69.00
2019-04-25T18:42:29.637Z,53.77
2019-04-25T18:45:10.558Z,55.10
2019-04-25T18:47:51.123Z,58.68
2019-04-25T18:50:36.257Z,56.77
2019-04-25T18:53:39.211Z,57.57
2019-04-25T18:56:38.955Z,48.93
2019-04-25T18:59:40.335Z,58.40
2019-04-25T19:02:39.770Z,56.57
2019-04-25T19:05:39.771Z,60.77
2019-04-25T19:08:24.103Z,58.57
2019-04-25T19:11:09.783Z,55.40
2019-04-25T19:13:51.944Z,66.07
2019-04-25T19:16:34.295Z,64.90
2019-04-25T19:19:18.945Z,67.67
2019-04-25T19:22:01.208Z,55.30
2019-04-25T19:24:47.697Z,64.57
2019-04-25T19:27:32.475Z,63.90
2019-04-25T19:30:15.005Z,64.77
2019-04-25T19:32:54.402Z,62.87
2019-04-25T19:35:36.381Z,70.13
2019-04-25T19:38:20.228Z,70.67
2019-04-25T19:41:18.765Z,64.13
2019-04-25T19:44:08.545Z,74.43
2019-04-25T19:46:53.059Z,73.03
2019-04-25T19:49:37.055Z,61.93
2019-04-25T19:52:21.426Z,75.73
2019-04-25T19:55:00.967Z,71.13
2019-04-25T19:57:42.568Z,71.33
2019-04-25T20:00:28.837Z,78.27
2019-04-25T20:03:22.579Z,80.17
2019-04-25T20:06:11.080Z,75.03
2019-04-25T20:09:07.844Z,76.03
2019-04-25T20:11:53.876Z,69.30
2019-04-25T20:14:36.305Z,72.20
2019-04-25T20:17:22.781Z,78.40
2019-04-25T20:20:06.705Z,75.23
2019-04-25T20:22:50.208Z,76.77
2019-04-25T20:25:32.383Z,68.80
2019-04-25T20:28:14.947Z,69.83
2019-04-25T20:31:02.212Z,68.73
2019-04-25T20:33:45.399Z,73.83
2019-04-25T20:36:25.153Z,74.30
2019-04-25T20:39:07.778Z,75.47
2019-04-25T20:41:53.919Z,74.90
2019-04-25T20:44:38.532Z,76.33
2019-04-25T20:47:21.096Z,74.23
2019-04-25T20:50:04.125Z,77.97
2019-04-25T20:52:47.576Z,74.07
2019-04-25T20:55:31.518Z,75.20
2019-04-25T20:58:17.097Z,74.90
2019-04-25T21:00:58.023Z,79.43
2019-04-25T21:03:37.990Z,75.97
2019-04-25T21:06:23.915Z,63.70
2019-04-25T21:09:07.812Z,72.97
2019-04-25T21:11:53.377Z,69.33
2019-04-25T21:14:46.853Z,77.03
2019-04-25T21:17:34.663Z,76.67
2019-04-25T21:20:13.453Z,76.73
2019-04-25T21:22:55.843Z,77.53
2019-04-25T21:25:42.922Z,84.40
2019-04-25T21:28:21.419Z,71.83
2019-04-25T21:31:03.552Z,74.60
2019-04-25T21:33:47.024Z,69.40
2019-04-25T21:36:33.688Z,66.63
2019-04-25T21:39:28.791Z,68.37
2019-04-25T21:42:25.065Z,73.87
2019-04-25T21:45:06.538Z,90.05
2019-04-25T21:47:48.771Z,72.87
2019-04-25T21:50:30.686Z,75.43
2019-04-25T21:53:16.818Z,80.42
2019-04-25T21:56:01.836Z,74.07
2019-04-25T21:58:45.302Z,75.73
2019-04-25T22:01:27.595Z,74.60
2019-04-25T22:04:08.400Z,72.93
2019-04-25T22:06:56.789Z,77.50
2019-04-25T22:09:37.536Z,76.83
2019-04-25T22:12:20.573Z,75.77
2019-04-25T22:15:01.469Z,70.27
2019-04-25T22:17:44.774Z,69.80
2019-04-25T22:20:29.358Z,72.50
2019-04-25T22:23:13.047Z,78.00
2019-04-25T22:26:00.013Z,68.77
2019-04-25T22:28:45.392Z,66.80
2019-04-25T22:31:30.623Z,69.43
2019-04-25T22:34:19.022Z,77.30
2019-04-25T22:37:00.643Z,81.67
2019-04-25T22:39:43.319Z,71.92
2019-04-25T22:42:28.644Z,70.70
2019-04-25T22:45:12.615Z,72.90
2019-04-25T22:47:56.481Z,86.90
2019-04-25T22:50:37.962Z,76.30
2019-04-25T22:53:24.662Z,84.07
2019-04-25T22:56:05.328Z,83.97
2019-04-25T22:58:46.494Z,84.20
2019-04-25T23:01:45.691Z,79.90
2019-04-25T23:05:04.349Z,73.77
2019-04-25T23:07:34.899Z,84.42
2019-04-25T23:10:16.647Z,85.80
2019-04-25T23:13:00.552Z,82.97
2019-04-25T23:15:44.190Z,90.67
2019-04-25T23:18:26.257Z,92.37
2019-04-25T23:21:08.829Z,85.53
2019-04-25T23:23:53.699Z,89.73
2019-04-25T23:26:43.592Z,95.37
2019-04-25T23:29:26.821Z,87.70
2019-04-25T23:32:11.071Z,95.00
2019-04-25T23:34:56.149Z,97.80
2019-04-25T23:37:41.443Z,90.80
2019-04-25T23:40:22.257Z,87.20
2019-04-25T23:43:00.636Z,97.33
2019-04-25T23:45:46.098Z,83.60
2019-04-25T23:48:32.199Z,89.57
2019-04-25T23:51:17.711Z,96.83
2019-04-25T23:54:04.320Z,95.27
2019-04-25T23:56:48.695Z,94.23
2019-04-25T23:59:33.370Z,94.30
